Aeroporto :
LOGIN :

Iscrizione | Disclaimer

   EN    FR    IT 

 










Sommario :    VFR   VFR Marginale   IFR   IFR Intensivo   IFR Molto Intensivo
Visibilità : 
Base nubi : 
>= 8 km
>= 3000ft
5 / 8 km
1000 / 3000 ft
1500m / 5 km
500 / 1000 ft
800 / 1500m
200 / 500 ft
< 800m
< 200 ft
Simboli :   Temporali  Nebbia  Neve Forte  Precipitazioni Forti  Vento > 20 kt
SIGMETs :   Varie  Temporali  Ghiacco  Turbolenza  Onda orograficha  Ceneri Vulcaniche






- Altitudine del aeroporto : 53 ft
- Codice IATA : HAM


EDDH - Hamburg

ULTIMO METAR :
  • 210050Z 27012KT 9999 BKN024 06/03 Q1008 TEMPO 27015G25KT

METARs OBSOLETI :
  • 210020Z 27013G25KT 9999 -RA BKN021 05/03 Q1007 NOSIG
  • 202350Z 28012KT 250V310 9999 -RA FEW010 BKN023 05/02 Q1007 TEMPO 29015G25KT
  • 202320Z 28017G27KT 9999 -RA FEW010 SCT015 BKN018 05/03 Q1006 NOSIG
  • 202250Z 28014KT 9999 -RADZ SCT012 BKN014 06/04 Q1005 TEMPO 28015G30KT
  • 202220Z 28015G27KT 9999 -RA BKN012 BKN037 06/04 Q1004 BECMG SCT013

TAF TAF EDDH
Valido dal 21 a 00 ore il 22 a 06 ore UTC


202300Z 2100/2206 26015G25KT 9999 SCT014 BKN025
BECMG 2102/2105 25012KT
BECMG 2109/2111 23015G25KT
TEMPO 2122/2206 23020G35KT



MetMap, La meteo Aeronautica in un colpo d'occhio ! - Copyright ORBIFLY Dicembre 2007 - Disclaimer

ORBIFLY MET'MAP TEAM :

Programmazione e sviluppo : Alexandra Zaïnal
Concezione : Baudouin d'Aumeries
Aiuto per la programmazione : Marc-Olivier Méhu
Supporto tecnico e logistico : Manuel Goepfert
Aiuto per la traduzione : Arnaldo La Scala

Contatto : metmap@orbifly.com




FONTI E CREDITI :

   NOAA